sensor_id;sensor_type;location;lat;lon;timestamp;P1;durP1;ratioP1;P2;durP2;ratioP2
82125;SDS011;71668;51.400;6.758;2023-07-31T00:01:47;6.97;;;4.23;;
82125;SDS011;71668;51.400;6.758;2023-07-31T00:04:14;8.43;;;4.27;;
82125;SDS011;71668;51.400;6.758;2023-07-31T00:06:41;8.30;;;4.23;;
82125;SDS011;71668;51.400;6.758;2023-07-31T00:09:08;9.17;;;4.63;;
82125;SDS011;71668;51.400;6.758;2023-07-31T00:11:35;8.53;;;4.60;;
82125;SDS011;71668;51.400;6.758;2023-07-31T00:14:02;6.97;;;3.90;;
82125;SDS011;71668;51.400;6.758;2023-07-31T00:16:30;4.63;;;3.33;;
82125;SDS011;71668;51.400;6.758;2023-07-31T00:18:57;7.60;;;3.97;;
82125;SDS011;71668;51.400;6.758;2023-07-31T00:21:24;8.40;;;3.90;;
82125;SDS011;71668;51.400;6.758;2023-07-31T00:23:51;6.07;;;4.07;;
82125;SDS011;71668;51.400;6.758;2023-07-31T00:26:18;7.20;;;4.30;;
82125;SDS011;71668;51.400;6.758;2023-07-31T00:28:44;6.73;;;3.90;;
82125;SDS011;71668;51.400;6.758;2023-07-31T00:31:13;8.20;;;4.33;;
82125;SDS011;71668;51.400;6.758;2023-07-31T00:33:40;7.20;;;4.33;;
82125;SDS011;71668;51.400;6.758;2023-07-31T00:36:07;9.23;;;4.80;;
82125;SDS011;71668;51.400;6.758;2023-07-31T00:38:33;9.67;;;4.50;;
82125;SDS011;71668;51.400;6.758;2023-07-31T00:41:00;7.63;;;4.10;;
82125;SDS011;71668;51.400;6.758;2023-07-31T00:43:27;8.60;;;4.73;;
82125;SDS011;71668;51.400;6.758;2023-07-31T00:45:54;8.00;;;4.33;;
82125;SDS011;71668;51.400;6.758;2023-07-31T00:48:21;7.90;;;4.10;;
82125;SDS011;71668;51.400;6.758;2023-07-31T00:50:49;9.43;;;4.73;;
82125;SDS011;71668;51.400;6.758;2023-07-31T00:53:17;7.57;;;4.37;;
82125;SDS011;71668;51.400;6.758;2023-07-31T00:55:44;9.00;;;4.27;;
82125;SDS011;71668;51.400;6.758;2023-07-31T00:58:12;9.27;;;4.87;;
82125;SDS011;71668;51.400;6.758;2023-07-31T01:00:39;9.63;;;4.60;;
82125;SDS011;71668;51.400;6.758;2023-07-31T01:03:06;11.23;;;4.40;;
82125;SDS011;71668;51.400;6.758;2023-07-31T01:05:36;11.60;;;4.93;;
82125;SDS011;71668;51.400;6.758;2023-07-31T01:08:33;10.77;;;4.53;;
82125;SDS011;71668;51.400;6.758;2023-07-31T01:11:14;10.60;;;4.80;;
82125;SDS011;71668;51.400;6.758;2023-07-31T01:13:45;10.87;;;4.57;;
82125;SDS011;71668;51.400;6.758;2023-07-31T01:16:12;11.50;;;4.87;;
82125;SDS011;71668;51.400;6.758;2023-07-31T01:18:40;9.83;;;4.77;;
82125;SDS011;71668;51.400;6.758;2023-07-31T01:21:14;11.17;;;4.73;;
82125;SDS011;71668;51.400;6.758;2023-07-31T01:26:28;9.03;;;4.60;;
82125;SDS011;71668;51.400;6.758;2023-07-31T01:29:09;9.30;;;4.33;;
82125;SDS011;71668;51.400;6.758;2023-07-31T01:31:41;7.97;;;4.43;;
82125;SDS011;71668;51.400;6.758;2023-07-31T01:34:10;8.50;;;4.43;;
82125;SDS011;71668;51.400;6.758;2023-07-31T01:36:39;12.67;;;4.67;;
82125;SDS011;71668;51.400;6.758;2023-07-31T01:39:07;8.80;;;4.20;;
82125;SDS011;71668;51.400;6.758;2023-07-31T01:41:33;7.30;;;3.90;;
82125;SDS011;71668;51.400;6.758;2023-07-31T01:44:01;8.73;;;4.27;;
82125;SDS011;71668;51.400;6.758;2023-07-31T01:46:27;8.67;;;4.37;;
82125;SDS011;71668;51.400;6.758;2023-07-31T01:48:55;9.93;;;4.20;;
82125;SDS011;71668;51.400;6.758;2023-07-31T01:51:23;11.47;;;5.20;;
82125;SDS011;71668;51.400;6.758;2023-07-31T01:53:50;8.53;;;4.63;;
82125;SDS011;71668;51.400;6.758;2023-07-31T01:56:17;11.83;;;5.70;;
82125;SDS011;71668;51.400;6.758;2023-07-31T01:58:44;9.73;;;4.70;;
82125;SDS011;71668;51.400;6.758;2023-07-31T02:01:10;10.77;;;4.80;;
82125;SDS011;71668;51.400;6.758;2023-07-31T02:03:37;9.10;;;4.63;;
82125;SDS011;71668;51.400;6.758;2023-07-31T02:06:04;12.07;;;6.00;;
82125;SDS011;71668;51.400;6.758;2023-07-31T02:08:31;13.33;;;6.70;;
82125;SDS011;71668;51.400;6.758;2023-07-31T02:10:58;11.77;;;5.57;;
82125;SDS011;71668;51.400;6.758;2023-07-31T02:13:25;7.77;;;3.97;;
82125;SDS011;71668;51.400;6.758;2023-07-31T02:15:52;6.30;;;4.50;;
82125;SDS011;71668;51.400;6.758;2023-07-31T02:18:19;9.93;;;4.40;;
82125;SDS011;71668;51.400;6.758;2023-07-31T02:20:49;7.70;;;4.03;;
82125;SDS011;71668;51.400;6.758;2023-07-31T02:23:20;10.33;;;4.73;;
82125;SDS011;71668;51.400;6.758;2023-07-31T02:25:47;10.00;;;4.57;;
82125;SDS011;71668;51.400;6.758;2023-07-31T02:28:14;10.20;;;4.60;;
82125;SDS011;71668;51.400;6.758;2023-07-31T02:30:43;8.70;;;4.43;;
82125;SDS011;71668;51.400;6.758;2023-07-31T02:33:12;9.60;;;4.53;;
82125;SDS011;71668;51.400;6.758;2023-07-31T02:35:39;10.77;;;4.67;;
82125;SDS011;71668;51.400;6.758;2023-07-31T02:38:06;7.77;;;4.40;;
82125;SDS011;71668;51.400;6.758;2023-07-31T02:40:32;8.43;;;4.40;;
82125;SDS011;71668;51.400;6.758;2023-07-31T02:42:59;10.13;;;4.80;;
82125;SDS011;71668;51.400;6.758;2023-07-31T02:45:26;8.87;;;4.90;;
82125;SDS011;71668;51.400;6.758;2023-07-31T02:47:53;9.23;;;4.57;;
82125;SDS011;71668;51.400;6.758;2023-07-31T02:50:20;8.50;;;4.40;;
82125;SDS011;71668;51.400;6.758;2023-07-31T02:52:46;14.83;;;5.57;;
82125;SDS011;71668;51.400;6.758;2023-07-31T02:55:13;13.23;;;4.80;;
82125;SDS011;71668;51.400;6.758;2023-07-31T02:57:40;10.63;;;5.30;;
82125;SDS011;71668;51.400;6.758;2023-07-31T03:00:07;11.87;;;5.60;;
82125;SDS011;71668;51.400;6.758;2023-07-31T03:02:34;10.83;;;5.27;;
82125;SDS011;71668;51.400;6.758;2023-07-31T03:05:01;13.23;;;5.90;;
82125;SDS011;71668;51.400;6.758;2023-07-31T03:07:28;11.17;;;5.77;;
82125;SDS011;71668;51.400;6.758;2023-07-31T03:09:56;14.20;;;5.37;;
82125;SDS011;71668;51.400;6.758;2023-07-31T03:12:23;10.27;;;5.03;;
82125;SDS011;71668;51.400;6.758;2023-07-31T03:14:50;10.77;;;5.23;;
82125;SDS011;71668;51.400;6.758;2023-07-31T03:17:21;11.63;;;5.70;;
82125;SDS011;71668;51.400;6.758;2023-07-31T03:19:48;12.07;;;6.00;;
82125;SDS011;71668;51.400;6.758;2023-07-31T03:22:15;12.40;;;5.23;;
82125;SDS011;71668;51.400;6.758;2023-07-31T03:24:41;8.47;;;4.83;;
82125;SDS011;71668;51.400;6.758;2023-07-31T03:27:08;13.23;;;5.70;;
82125;SDS011;71668;51.400;6.758;2023-07-31T03:29:35;13.63;;;6.20;;
82125;SDS011;71668;51.400;6.758;2023-07-31T03:32:02;14.43;;;6.63;;
82125;SDS011;71668;51.400;6.758;2023-07-31T03:34:29;10.87;;;6.20;;
82125;SDS011;71668;51.400;6.758;2023-07-31T03:36:58;11.77;;;5.83;;
82125;SDS011;71668;51.400;6.758;2023-07-31T03:39:25;10.60;;;5.23;;
82125;SDS011;71668;51.400;6.758;2023-07-31T03:41:52;10.60;;;4.73;;
82125;SDS011;71668;51.400;6.758;2023-07-31T03:44:19;9.03;;;4.57;;
82125;SDS011;71668;51.400;6.758;2023-07-31T03:46:46;9.53;;;4.50;;
82125;SDS011;71668;51.400;6.758;2023-07-31T03:49:13;11.20;;;4.83;;
82125;SDS011;71668;51.400;6.758;2023-07-31T03:51:40;9.50;;;4.87;;
82125;SDS011;71668;51.400;6.758;2023-07-31T03:54:08;9.50;;;5.13;;
82125;SDS011;71668;51.400;6.758;2023-07-31T03:56:35;12.53;;;5.27;;
82125;SDS011;71668;51.400;6.758;2023-07-31T03:59:04;13.13;;;5.37;;
82125;SDS011;71668;51.400;6.758;2023-07-31T04:01:31;11.83;;;5.93;;
82125;SDS011;71668;51.400;6.758;2023-07-31T04:03:58;12.67;;;6.00;;
82125;SDS011;71668;51.400;6.758;2023-07-31T04:06:25;11.60;;;6.37;;
82125;SDS011;71668;51.400;6.758;2023-07-31T04:08:52;10.30;;;5.90;;
82125;SDS011;71668;51.400;6.758;2023-07-31T04:11:20;13.47;;;6.20;;
82125;SDS011;71668;51.400;6.758;2023-07-31T04:13:50;10.00;;;6.07;;
82125;SDS011;71668;51.400;6.758;2023-07-31T04:16:17;12.47;;;6.47;;
82125;SDS011;71668;51.400;6.758;2023-07-31T04:18:43;12.40;;;6.47;;
82125;SDS011;71668;51.400;6.758;2023-07-31T04:21:10;10.73;;;6.17;;
82125;SDS011;71668;51.400;6.758;2023-07-31T04:23:37;13.20;;;6.33;;
82125;SDS011;71668;51.400;6.758;2023-07-31T04:26:04;14.00;;;6.67;;
82125;SDS011;71668;51.400;6.758;2023-07-31T04:28:31;10.70;;;6.37;;
82125;SDS011;71668;51.400;6.758;2023-07-31T04:30:58;11.17;;;6.10;;
82125;SDS011;71668;51.400;6.758;2023-07-31T04:33:25;11.50;;;5.57;;
82125;SDS011;71668;51.400;6.758;2023-07-31T04:35:52;9.23;;;5.50;;
82125;SDS011;71668;51.400;6.758;2023-07-31T04:38:20;9.47;;;5.17;;
82125;SDS011;71668;51.400;6.758;2023-07-31T04:40:47;10.30;;;4.67;;
82125;SDS011;71668;51.400;6.758;2023-07-31T04:43:15;10.83;;;4.60;;
82125;SDS011;71668;51.400;6.758;2023-07-31T04:45:42;10.30;;;4.87;;
82125;SDS011;71668;51.400;6.758;2023-07-31T04:48:13;8.33;;;4.87;;
82125;SDS011;71668;51.400;6.758;2023-07-31T04:50:40;8.70;;;5.07;;
82125;SDS011;71668;51.400;6.758;2023-07-31T04:53:21;11.77;;;4.70;;
82125;SDS011;71668;51.400;6.758;2023-07-31T04:56:06;8.10;;;4.27;;
82125;SDS011;71668;51.400;6.758;2023-07-31T04:58:33;9.50;;;4.77;;
82125;SDS011;71668;51.400;6.758;2023-07-31T05:01:00;6.57;;;4.37;;
82125;SDS011;71668;51.400;6.758;2023-07-31T05:03:27;8.63;;;4.70;;
82125;SDS011;71668;51.400;6.758;2023-07-31T05:05:54;7.03;;;4.60;;
82125;SDS011;71668;51.400;6.758;2023-07-31T05:08:21;10.27;;;4.83;;
82125;SDS011;71668;51.400;6.758;2023-07-31T05:10:48;8.47;;;4.60;;
82125;SDS011;71668;51.400;6.758;2023-07-31T05:13:15;7.20;;;4.17;;
82125;SDS011;71668;51.400;6.758;2023-07-31T05:15:41;9.00;;;4.97;;
82125;SDS011;71668;51.400;6.758;2023-07-31T05:18:08;10.13;;;4.50;;
82125;SDS011;71668;51.400;6.758;2023-07-31T05:20:35;10.83;;;5.07;;
82125;SDS011;71668;51.400;6.758;2023-07-31T05:23:02;8.27;;;4.80;;
82125;SDS011;71668;51.400;6.758;2023-07-31T05:25:29;8.77;;;4.50;;
82125;SDS011;71668;51.400;6.758;2023-07-31T05:27:55;7.43;;;4.70;;
82125;SDS011;71668;51.400;6.758;2023-07-31T05:30:22;8.67;;;4.83;;
82125;SDS011;71668;51.400;6.758;2023-07-31T05:32:49;6.80;;;4.83;;
82125;SDS011;71668;51.400;6.758;2023-07-31T05:35:16;8.87;;;4.73;;
82125;SDS011;71668;51.400;6.758;2023-07-31T05:37:43;9.60;;;4.77;;
82125;SDS011;71668;51.400;6.758;2023-07-31T05:40:09;8.73;;;5.00;;
82125;SDS011;71668;51.400;6.758;2023-07-31T05:42:37;6.60;;;4.53;;
82125;SDS011;71668;51.400;6.758;2023-07-31T05:45:05;7.37;;;4.70;;
82125;SDS011;71668;51.400;6.758;2023-07-31T05:47:33;7.70;;;5.13;;
82125;SDS011;71668;51.400;6.758;2023-07-31T05:50:00;5.07;;;4.13;;
82125;SDS011;71668;51.400;6.758;2023-07-31T05:52:27;6.77;;;4.23;;
82125;SDS011;71668;51.400;6.758;2023-07-31T05:54:55;9.83;;;5.13;;
82125;SDS011;71668;51.400;6.758;2023-07-31T05:57:22;8.33;;;5.17;;
82125;SDS011;71668;51.400;6.758;2023-07-31T05:59:49;8.20;;;4.73;;
82125;SDS011;71668;51.400;6.758;2023-07-31T06:02:15;8.80;;;4.77;;
82125;SDS011;71668;51.400;6.758;2023-07-31T06:04:42;6.70;;;3.93;;
82125;SDS011;71668;51.400;6.758;2023-07-31T06:07:09;7.43;;;4.30;;
82125;SDS011;71668;51.400;6.758;2023-07-31T06:09:37;8.13;;;5.07;;
82125;SDS011;71668;51.400;6.758;2023-07-31T06:12:04;7.77;;;5.00;;
82125;SDS011;71668;51.400;6.758;2023-07-31T06:14:31;9.23;;;4.83;;
82125;SDS011;71668;51.400;6.758;2023-07-31T06:16:57;9.00;;;5.07;;
82125;SDS011;71668;51.400;6.758;2023-07-31T06:19:24;6.87;;;4.60;;
82125;SDS011;71668;51.400;6.758;2023-07-31T06:21:51;7.50;;;4.60;;
82125;SDS011;71668;51.400;6.758;2023-07-31T06:24:18;8.90;;;4.83;;
82125;SDS011;71668;51.400;6.758;2023-07-31T06:26:46;5.93;;;4.60;;
82125;SDS011;71668;51.400;6.758;2023-07-31T06:29:13;7.47;;;4.93;;
82125;SDS011;71668;51.400;6.758;2023-07-31T06:31:40;8.03;;;4.27;;
82125;SDS011;71668;51.400;6.758;2023-07-31T06:34:07;8.43;;;4.80;;
82125;SDS011;71668;51.400;6.758;2023-07-31T06:36:34;7.17;;;4.83;;
82125;SDS011;71668;51.400;6.758;2023-07-31T06:39:01;9.00;;;4.43;;
82125;SDS011;71668;51.400;6.758;2023-07-31T06:41:28;6.83;;;4.70;;
82125;SDS011;71668;51.400;6.758;2023-07-31T06:43:55;7.93;;;4.80;;
82125;SDS011;71668;51.400;6.758;2023-07-31T06:46:21;9.73;;;6.00;;
82125;SDS011;71668;51.400;6.758;2023-07-31T06:48:48;7.93;;;4.87;;
82125;SDS011;71668;51.400;6.758;2023-07-31T06:51:15;9.50;;;4.90;;
82125;SDS011;71668;51.400;6.758;2023-07-31T06:53:42;8.63;;;4.87;;
82125;SDS011;71668;51.400;6.758;2023-07-31T06:56:11;6.67;;;4.77;;
82125;SDS011;71668;51.400;6.758;2023-07-31T06:58:38;5.57;;;4.37;;
82125;SDS011;71668;51.400;6.758;2023-07-31T07:01:05;9.07;;;4.83;;
82125;SDS011;71668;51.400;6.758;2023-07-31T07:03:32;11.07;;;7.10;;
82125;SDS011;71668;51.400;6.758;2023-07-31T07:05:59;9.27;;;5.63;;
82125;SDS011;71668;51.400;6.758;2023-07-31T07:08:26;7.03;;;5.40;;
82125;SDS011;71668;51.400;6.758;2023-07-31T07:10:53;9.17;;;5.63;;
82125;SDS011;71668;51.400;6.758;2023-07-31T07:13:21;9.00;;;5.67;;
82125;SDS011;71668;51.400;6.758;2023-07-31T07:15:48;7.53;;;5.27;;
82125;SDS011;71668;51.400;6.758;2023-07-31T07:18:15;8.53;;;5.33;;
82125;SDS011;71668;51.400;6.758;2023-07-31T07:20:46;7.83;;;5.03;;
82125;SDS011;71668;51.400;6.758;2023-07-31T07:23:14;6.77;;;5.03;;
82125;SDS011;71668;51.400;6.758;2023-07-31T07:25:41;8.53;;;5.10;;
82125;SDS011;71668;51.400;6.758;2023-07-31T07:28:09;10.00;;;5.17;;
82125;SDS011;71668;51.400;6.758;2023-07-31T07:30:36;6.27;;;4.53;;
82125;SDS011;71668;51.400;6.758;2023-07-31T07:33:03;9.30;;;4.80;;
82125;SDS011;71668;51.400;6.758;2023-07-31T07:35:32;8.77;;;4.80;;
82125;SDS011;71668;51.400;6.758;2023-07-31T07:38:00;6.90;;;4.70;;
82125;SDS011;71668;51.400;6.758;2023-07-31T07:40:28;5.70;;;4.70;;
82125;SDS011;71668;51.400;6.758;2023-07-31T07:42:55;8.50;;;4.77;;
82125;SDS011;71668;51.400;6.758;2023-07-31T07:45:22;6.03;;;4.50;;
82125;SDS011;71668;51.400;6.758;2023-07-31T07:47:49;9.50;;;6.33;;
82125;SDS011;71668;51.400;6.758;2023-07-31T07:50:16;9.67;;;5.40;;
82125;SDS011;71668;51.400;6.758;2023-07-31T07:52:42;9.20;;;5.00;;
82125;SDS011;71668;51.400;6.758;2023-07-31T07:55:09;7.67;;;5.00;;
82125;SDS011;71668;51.400;6.758;2023-07-31T07:57:36;6.87;;;4.93;;
82125;SDS011;71668;51.400;6.758;2023-07-31T08:00:03;6.33;;;4.73;;
82125;SDS011;71668;51.400;6.758;2023-07-31T08:02:39;8.40;;;4.43;;
82125;SDS011;71668;51.400;6.758;2023-07-31T08:05:06;7.17;;;4.50;;
82125;SDS011;71668;51.400;6.758;2023-07-31T08:07:33;7.90;;;4.23;;
82125;SDS011;71668;51.400;6.758;2023-07-31T08:10:00;6.50;;;4.63;;
82125;SDS011;71668;51.400;6.758;2023-07-31T08:12:27;5.73;;;4.33;;
82125;SDS011;71668;51.400;6.758;2023-07-31T08:14:53;5.33;;;3.80;;
82125;SDS011;71668;51.400;6.758;2023-07-31T08:17:20;5.97;;;4.00;;
82125;SDS011;71668;51.400;6.758;2023-07-31T08:19:47;7.37;;;3.90;;
82125;SDS011;71668;51.400;6.758;2023-07-31T08:22:14;3.80;;;3.10;;
82125;SDS011;71668;51.400;6.758;2023-07-31T08:24:41;4.70;;;3.10;;
82125;SDS011;71668;51.400;6.758;2023-07-31T08:27:08;4.47;;;3.43;;
82125;SDS011;71668;51.400;6.758;2023-07-31T08:29:35;5.33;;;3.57;;
82125;SDS011;71668;51.400;6.758;2023-07-31T08:32:02;5.83;;;3.57;;
82125;SDS011;71668;51.400;6.758;2023-07-31T08:34:29;4.63;;;3.10;;
82125;SDS011;71668;51.400;6.758;2023-07-31T08:36:56;5.13;;;3.87;;
82125;SDS011;71668;51.400;6.758;2023-07-31T08:39:23;5.80;;;4.20;;
82125;SDS011;71668;51.400;6.758;2023-07-31T08:41:49;7.17;;;5.07;;
82125;SDS011;71668;51.400;6.758;2023-07-31T08:44:16;6.50;;;3.87;;
82125;SDS011;71668;51.400;6.758;2023-07-31T08:46:44;6.73;;;4.57;;
82125;SDS011;71668;51.400;6.758;2023-07-31T08:49:12;4.63;;;3.57;;
82125;SDS011;71668;51.400;6.758;2023-07-31T08:51:40;7.07;;;4.23;;
82125;SDS011;71668;51.400;6.758;2023-07-31T08:54:08;6.67;;;4.67;;
82125;SDS011;71668;51.400;6.758;2023-07-31T08:56:35;8.30;;;6.50;;
82125;SDS011;71668;51.400;6.758;2023-07-31T08:59:03;8.90;;;5.10;;
82125;SDS011;71668;51.400;6.758;2023-07-31T09:01:31;7.37;;;4.77;;
82125;SDS011;71668;51.400;6.758;2023-07-31T09:04:04;5.63;;;3.70;;
82125;SDS011;71668;51.400;6.758;2023-07-31T09:06:32;7.80;;;5.70;;
82125;SDS011;71668;51.400;6.758;2023-07-31T09:09:01;5.13;;;3.63;;
82125;SDS011;71668;51.400;6.758;2023-07-31T09:11:27;4.73;;;3.50;;
82125;SDS011;71668;51.400;6.758;2023-07-31T09:13:56;4.63;;;2.93;;
82125;SDS011;71668;51.400;6.758;2023-07-31T09:16:30;4.30;;;2.90;;
82125;SDS011;71668;51.400;6.758;2023-07-31T09:18:59;5.37;;;3.43;;
82125;SDS011;71668;51.400;6.758;2023-07-31T09:21:28;4.27;;;3.13;;
82125;SDS011;71668;51.400;6.758;2023-07-31T09:23:54;5.70;;;3.03;;
82125;SDS011;71668;51.400;6.758;2023-07-31T09:26:34;4.77;;;3.47;;
82125;SDS011;71668;51.400;6.758;2023-07-31T09:29:06;7.40;;;5.83;;
82125;SDS011;71668;51.400;6.758;2023-07-31T09:31:44;6.00;;;4.70;;
82125;SDS011;71668;51.400;6.758;2023-07-31T09:34:12;4.03;;;3.50;;
82125;SDS011;71668;51.400;6.758;2023-07-31T09:36:40;5.67;;;3.57;;
82125;SDS011;71668;51.400;6.758;2023-07-31T09:39:16;4.47;;;3.17;;
82125;SDS011;71668;51.400;6.758;2023-07-31T09:41:44;4.17;;;3.10;;
82125;SDS011;71668;51.400;6.758;2023-07-31T09:44:13;5.10;;;3.17;;
82125;SDS011;71668;51.400;6.758;2023-07-31T09:46:40;3.60;;;2.93;;
82125;SDS011;71668;51.400;6.758;2023-07-31T09:49:10;4.10;;;3.27;;
82125;SDS011;71668;51.400;6.758;2023-07-31T09:51:39;4.20;;;3.30;;
82125;SDS011;71668;51.400;6.758;2023-07-31T09:54:11;4.80;;;2.93;;
82125;SDS011;71668;51.400;6.758;2023-07-31T09:56:43;3.10;;;2.80;;
82125;SDS011;71668;51.400;6.758;2023-07-31T09:59:12;3.27;;;2.67;;
82125;SDS011;71668;51.400;6.758;2023-07-31T10:01:41;3.50;;;2.60;;
82125;SDS011;71668;51.400;6.758;2023-07-31T10:04:09;3.40;;;2.57;;
82125;SDS011;71668;51.400;6.758;2023-07-31T10:06:37;4.10;;;3.13;;
82125;SDS011;71668;51.400;6.758;2023-07-31T10:09:08;3.80;;;3.10;;
82125;SDS011;71668;51.400;6.758;2023-07-31T10:11:38;5.13;;;4.00;;
82125;SDS011;71668;51.400;6.758;2023-07-31T10:14:20;6.10;;;4.33;;
82125;SDS011;71668;51.400;6.758;2023-07-31T10:16:47;4.27;;;3.77;;
82125;SDS011;71668;51.400;6.758;2023-07-31T10:19:15;5.33;;;3.70;;
82125;SDS011;71668;51.400;6.758;2023-07-31T10:21:44;7.60;;;4.10;;
82125;SDS011;71668;51.400;6.758;2023-07-31T10:24:12;5.90;;;4.43;;
82125;SDS011;71668;51.400;6.758;2023-07-31T10:26:40;4.70;;;3.83;;
82125;SDS011;71668;51.400;6.758;2023-07-31T10:29:10;5.27;;;3.60;;
82125;SDS011;71668;51.400;6.758;2023-07-31T10:31:37;7.70;;;4.40;;
82125;SDS011;71668;51.400;6.758;2023-07-31T10:34:04;7.93;;;5.33;;
82125;SDS011;71668;51.400;6.758;2023-07-31T10:36:32;6.57;;;4.83;;
82125;SDS011;71668;51.400;6.758;2023-07-31T10:38:59;8.10;;;4.73;;
82125;SDS011;71668;51.400;6.758;2023-07-31T10:41:30;6.00;;;4.83;;
82125;SDS011;71668;51.400;6.758;2023-07-31T10:43:58;6.10;;;4.30;;
82125;SDS011;71668;51.400;6.758;2023-07-31T10:46:28;6.43;;;4.23;;
82125;SDS011;71668;51.400;6.758;2023-07-31T10:49:00;8.93;;;4.40;;
82125;SDS011;71668;51.400;6.758;2023-07-31T10:51:37;5.63;;;4.07;;
82125;SDS011;71668;51.400;6.758;2023-07-31T10:54:11;7.37;;;4.67;;
82125;SDS011;71668;51.400;6.758;2023-07-31T10:56:39;8.07;;;4.77;;
82125;SDS011;71668;51.400;6.758;2023-07-31T10:59:08;7.23;;;3.83;;
82125;SDS011;71668;51.400;6.758;2023-07-31T11:01:51;5.80;;;4.47;;
82125;SDS011;71668;51.400;6.758;2023-07-31T11:04:23;7.23;;;4.73;;
82125;SDS011;71668;51.400;6.758;2023-07-31T11:06:56;5.30;;;4.10;;
82125;SDS011;71668;51.400;6.758;2023-07-31T11:09:25;5.73;;;3.73;;
82125;SDS011;71668;51.400;6.758;2023-07-31T11:11:56;4.90;;;3.57;;
82125;SDS011;71668;51.400;6.758;2023-07-31T11:14:23;5.73;;;4.37;;
82125;SDS011;71668;51.400;6.758;2023-07-31T11:16:50;5.03;;;4.10;;
82125;SDS011;71668;51.400;6.758;2023-07-31T11:19:23;10.37;;;7.30;;
82125;SDS011;71668;51.400;6.758;2023-07-31T11:21:53;9.17;;;5.10;;
82125;SDS011;71668;51.400;6.758;2023-07-31T11:24:21;7.33;;;4.07;;
82125;SDS011;71668;51.400;6.758;2023-07-31T11:26:51;6.07;;;3.67;;
82125;SDS011;71668;51.400;6.758;2023-07-31T11:29:19;5.70;;;4.30;;
82125;SDS011;71668;51.400;6.758;2023-07-31T11:31:46;6.33;;;3.73;;
82125;SDS011;71668;51.400;6.758;2023-07-31T11:34:14;6.53;;;4.33;;
82125;SDS011;71668;51.400;6.758;2023-07-31T11:36:42;5.43;;;4.30;;
82125;SDS011;71668;51.400;6.758;2023-07-31T11:39:25;5.57;;;4.10;;
82125;SDS011;71668;51.400;6.758;2023-07-31T11:41:58;5.57;;;3.80;;
82125;SDS011;71668;51.400;6.758;2023-07-31T11:44:26;4.87;;;3.93;;
82125;SDS011;71668;51.400;6.758;2023-07-31T11:47:03;6.63;;;4.60;;
82125;SDS011;71668;51.400;6.758;2023-07-31T11:49:30;8.43;;;5.67;;
82125;SDS011;71668;51.400;6.758;2023-07-31T11:51:58;9.20;;;5.83;;
82125;SDS011;71668;51.400;6.758;2023-07-31T11:54:25;10.30;;;5.80;;
82125;SDS011;71668;51.400;6.758;2023-07-31T11:56:51;7.30;;;5.70;;
82125;SDS011;71668;51.400;6.758;2023-07-31T11:59:18;4.97;;;4.13;;
82125;SDS011;71668;51.400;6.758;2023-07-31T12:01:45;9.63;;;5.27;;
82125;SDS011;71668;51.400;6.758;2023-07-31T12:04:13;5.90;;;4.83;;
82125;SDS011;71668;51.400;6.758;2023-07-31T12:06:39;6.40;;;4.50;;
82125;SDS011;71668;51.400;6.758;2023-07-31T12:09:07;5.27;;;3.80;;
82125;SDS011;71668;51.400;6.758;2023-07-31T12:11:42;6.57;;;4.97;;
82125;SDS011;71668;51.400;6.758;2023-07-31T12:14:24;8.87;;;5.60;;
82125;SDS011;71668;51.400;6.758;2023-07-31T12:16:56;6.70;;;5.87;;
82125;SDS011;71668;51.400;6.758;2023-07-31T12:19:25;8.57;;;5.73;;
82125;SDS011;71668;51.400;6.758;2023-07-31T12:21:56;8.70;;;5.47;;
82125;SDS011;71668;51.400;6.758;2023-07-31T12:24:24;4.60;;;4.07;;
82125;SDS011;71668;51.400;6.758;2023-07-31T12:26:52;4.80;;;3.70;;
82125;SDS011;71668;51.400;6.758;2023-07-31T12:29:21;5.57;;;3.90;;
82125;SDS011;71668;51.400;6.758;2023-07-31T12:31:47;6.13;;;3.57;;
82125;SDS011;71668;51.400;6.758;2023-07-31T12:34:18;5.63;;;4.07;;
82125;SDS011;71668;51.400;6.758;2023-07-31T12:36:49;5.37;;;3.37;;
82125;SDS011;71668;51.400;6.758;2023-07-31T12:39:16;3.53;;;2.73;;
82125;SDS011;71668;51.400;6.758;2023-07-31T12:41:43;3.80;;;3.00;;
82125;SDS011;71668;51.400;6.758;2023-07-31T12:44:10;4.93;;;3.43;;
82125;SDS011;71668;51.400;6.758;2023-07-31T12:46:37;6.57;;;3.60;;
82125;SDS011;71668;51.400;6.758;2023-07-31T12:49:04;4.93;;;4.33;;
82125;SDS011;71668;51.400;6.758;2023-07-31T12:51:31;4.30;;;3.30;;
82125;SDS011;71668;51.400;6.758;2023-07-31T12:53:58;3.03;;;2.70;;
82125;SDS011;71668;51.400;6.758;2023-07-31T12:56:25;3.50;;;2.60;;
82125;SDS011;71668;51.400;6.758;2023-07-31T12:58:52;5.77;;;3.40;;
82125;SDS011;71668;51.400;6.758;2023-07-31T13:01:18;3.93;;;3.07;;
82125;SDS011;71668;51.400;6.758;2023-07-31T13:03:45;4.20;;;3.50;;
82125;SDS011;71668;51.400;6.758;2023-07-31T13:06:12;5.30;;;3.20;;
82125;SDS011;71668;51.400;6.758;2023-07-31T13:08:39;4.73;;;3.10;;
82125;SDS011;71668;51.400;6.758;2023-07-31T13:11:06;4.20;;;3.23;;
82125;SDS011;71668;51.400;6.758;2023-07-31T13:13:33;4.40;;;3.20;;
82125;SDS011;71668;51.400;6.758;2023-07-31T13:15:59;4.67;;;3.20;;
82125;SDS011;71668;51.400;6.758;2023-07-31T13:18:26;3.53;;;2.90;;
82125;SDS011;71668;51.400;6.758;2023-07-31T13:20:53;4.67;;;2.70;;
82125;SDS011;71668;51.400;6.758;2023-07-31T13:23:20;3.03;;;2.70;;
82125;SDS011;71668;51.400;6.758;2023-07-31T13:25:46;4.93;;;2.70;;
82125;SDS011;71668;51.400;6.758;2023-07-31T13:28:13;5.00;;;2.63;;
82125;SDS011;71668;51.400;6.758;2023-07-31T13:30:41;4.40;;;2.90;;
82125;SDS011;71668;51.400;6.758;2023-07-31T13:33:07;4.40;;;2.80;;
82125;SDS011;71668;51.400;6.758;2023-07-31T13:35:50;3.80;;;3.40;;
82125;SDS011;71668;51.400;6.758;2023-07-31T13:38:17;3.67;;;3.03;;
82125;SDS011;71668;51.400;6.758;2023-07-31T13:40:44;3.00;;;2.70;;
82125;SDS011;71668;51.400;6.758;2023-07-31T13:43:11;5.13;;;2.93;;
82125;SDS011;71668;51.400;6.758;2023-07-31T13:45:37;4.83;;;2.93;;
82125;SDS011;71668;51.400;6.758;2023-07-31T13:48:04;5.63;;;3.23;;
82125;SDS011;71668;51.400;6.758;2023-07-31T13:50:31;5.13;;;3.17;;
82125;SDS011;71668;51.400;6.758;2023-07-31T13:52:58;5.10;;;3.30;;
82125;SDS011;71668;51.400;6.758;2023-07-31T13:55:24;5.27;;;3.00;;
82125;SDS011;71668;51.400;6.758;2023-07-31T13:57:51;4.50;;;3.50;;
82125;SDS011;71668;51.400;6.758;2023-07-31T14:00:19;4.57;;;3.13;;
82125;SDS011;71668;51.400;6.758;2023-07-31T14:02:46;3.83;;;3.13;;
82125;SDS011;71668;51.400;6.758;2023-07-31T14:05:13;6.43;;;4.53;;
82125;SDS011;71668;51.400;6.758;2023-07-31T14:07:40;6.53;;;4.20;;
82125;SDS011;71668;51.400;6.758;2023-07-31T14:10:07;5.67;;;4.27;;
82125;SDS011;71668;51.400;6.758;2023-07-31T14:12:34;5.00;;;3.90;;
82125;SDS011;71668;51.400;6.758;2023-07-31T14:15:09;5.23;;;3.60;;
82125;SDS011;71668;51.400;6.758;2023-07-31T14:17:36;6.27;;;4.67;;
82125;SDS011;71668;51.400;6.758;2023-07-31T14:20:03;6.67;;;5.10;;
82125;SDS011;71668;51.400;6.758;2023-07-31T14:22:31;7.23;;;4.77;;
82125;SDS011;71668;51.400;6.758;2023-07-31T14:24:59;5.83;;;4.50;;
82125;SDS011;71668;51.400;6.758;2023-07-31T14:27:26;5.93;;;4.50;;
82125;SDS011;71668;51.400;6.758;2023-07-31T14:29:53;7.87;;;5.57;;
82125;SDS011;71668;51.400;6.758;2023-07-31T14:32:21;5.70;;;4.77;;
82125;SDS011;71668;51.400;6.758;2023-07-31T14:34:49;6.17;;;4.63;;
82125;SDS011;71668;51.400;6.758;2023-07-31T14:37:16;5.40;;;3.70;;
82125;SDS011;71668;51.400;6.758;2023-07-31T14:39:43;4.77;;;3.80;;
82125;SDS011;71668;51.400;6.758;2023-07-31T14:42:10;6.13;;;4.00;;
82125;SDS011;71668;51.400;6.758;2023-07-31T14:44:37;4.70;;;3.50;;
82125;SDS011;71668;51.400;6.758;2023-07-31T14:47:04;5.47;;;3.80;;
82125;SDS011;71668;51.400;6.758;2023-07-31T14:49:31;4.87;;;3.77;;
82125;SDS011;71668;51.400;6.758;2023-07-31T14:51:58;5.50;;;4.17;;
82125;SDS011;71668;51.400;6.758;2023-07-31T14:54:25;6.90;;;3.80;;